createdAt,value
2019-03-27T00:01:53.115Z,20.67
2019-03-27T00:04:33.663Z,18.73
2019-03-27T00:07:14.539Z,17.70
2019-03-27T00:09:55.109Z,17.93
2019-03-27T00:12:36.025Z,18.47
2019-03-27T00:15:29.592Z,15.60
2019-03-27T00:18:17.990Z,21.07
2019-03-27T00:21:06.299Z,15.80
2019-03-27T00:23:54.800Z,15.93
2019-03-27T00:26:43.113Z,14.63
2019-03-27T00:29:31.456Z,20.13
2019-03-27T00:32:19.838Z,13.40
2019-03-27T00:35:08.403Z,16.77
2019-03-27T00:37:56.885Z,18.23
2019-03-27T00:40:45.282Z,17.93
2019-03-27T00:43:33.681Z,17.80
2019-03-27T00:46:22.004Z,14.63
2019-03-27T00:49:10.337Z,17.23
2019-03-27T00:51:39.754Z,19.03
2019-03-27T00:54:28.072Z,15.70
2019-03-27T00:57:16.529Z,12.90
2019-03-27T01:03:33.809Z,19.37
2019-03-27T01:06:22.154Z,19.07
2019-03-27T01:12:06.103Z,15.97
2019-03-27T01:14:54.412Z,21.87
2019-03-27T01:17:35.032Z,18.10
2019-03-27T01:20:15.803Z,21.50
2019-03-27T01:22:56.519Z,19.87
2019-03-27T01:25:37.187Z,20.50
2019-03-27T01:28:17.986Z,21.40
2019-03-27T01:30:58.932Z,20.67
2019-03-27T01:33:39.952Z,22.20
2019-03-27T01:36:20.594Z,19.67
2019-03-27T01:39:01.474Z,21.40
2019-03-27T01:41:42.384Z,16.93
2019-03-27T01:44:23.229Z,15.87
2019-03-27T01:47:04.042Z,18.23
2019-03-27T01:49:44.682Z,14.40
2019-03-27T01:52:25.397Z,18.93
2019-03-27T01:55:06.235Z,14.77
2019-03-27T01:57:46.701Z,20.23
2019-03-27T02:00:27.624Z,22.87
2019-03-27T02:03:08.108Z,22.93
2019-03-27T02:05:48.679Z,21.20
2019-03-27T02:08:29.792Z,13.17
2019-03-27T02:11:12.060Z,18.83
2019-03-27T02:13:52.725Z,19.87
2019-03-27T02:16:33.711Z,16.07
2019-03-27T02:19:15.509Z,14.03
2019-03-27T02:21:56.296Z,17.93
2019-03-27T02:24:37.062Z,15.20
2019-03-27T02:27:17.753Z,27.17
2019-03-27T02:29:58.500Z,23.03
2019-03-27T02:32:39.625Z,31.07
2019-03-27T02:35:20.796Z,13.20
2019-03-27T02:38:01.523Z,12.37
2019-03-27T02:40:42.939Z,16.40
2019-03-27T02:43:23.678Z,16.03
2019-03-27T02:46:04.651Z,14.07
2019-03-27T02:48:45.459Z,17.90
2019-03-27T02:51:26.372Z,12.97
2019-03-27T02:54:06.981Z,18.53
2019-03-27T02:56:48.042Z,13.27
2019-03-27T02:59:28.898Z,19.53
2019-03-27T03:02:10.354Z,16.87
2019-03-27T03:04:51.223Z,25.60
2019-03-27T03:07:31.762Z,14.07
2019-03-27T03:10:12.613Z,18.47
2019-03-27T03:12:53.330Z,16.13
2019-03-27T03:15:34.315Z,16.87
2019-03-27T03:18:14.941Z,16.80
2019-03-27T03:20:55.488Z,16.27
2019-03-27T03:23:36.319Z,17.63
2019-03-27T03:26:17.136Z,14.73
2019-03-27T03:28:58.335Z,15.33
2019-03-27T03:31:39.155Z,16.87
2019-03-27T03:34:19.753Z,19.13
2019-03-27T03:37:00.551Z,15.33
2019-03-27T03:39:41.344Z,20.97
2019-03-27T03:42:22.126Z,18.63
2019-03-27T03:45:02.929Z,14.53
2019-03-27T03:47:44.017Z,14.67
2019-03-27T03:50:24.862Z,13.77
2019-03-27T03:53:05.749Z,15.43
2019-03-27T03:55:46.341Z,16.47
2019-03-27T03:58:27.175Z,13.30
2019-03-27T04:01:08.030Z,17.03
2019-03-27T04:03:48.826Z,15.27
2019-03-27T04:06:29.372Z,16.23
2019-03-27T04:09:10.218Z,14.83
2019-03-27T04:14:34.304Z,21.77
2019-03-27T04:17:17.394Z,24.60
2019-03-27T04:19:57.805Z,21.60
2019-03-27T04:22:39.096Z,25.37
2019-03-27T04:25:20.999Z,23.10
2019-03-27T04:28:01.443Z,23.13
2019-03-27T04:30:42.170Z,20.57
2019-03-27T04:33:22.772Z,22.93
2019-03-27T04:36:03.775Z,23.20
2019-03-27T04:38:44.914Z,31.83
2019-03-27T04:41:25.550Z,26.97
2019-03-27T04:44:06.826Z,22.70
2019-03-27T04:46:47.920Z,34.30
2019-03-27T04:52:10.938Z,30.07
2019-03-27T04:54:40.315Z,26.70
2019-03-27T04:57:28.693Z,29.40
2019-03-27T05:00:17.083Z,20.93
2019-03-27T05:03:06.175Z,30.90
2019-03-27T05:05:54.701Z,25.37
2019-03-27T05:08:43.110Z,26.53
2019-03-27T05:11:31.494Z,27.47
2019-03-27T05:14:19.886Z,31.03
2019-03-27T05:17:08.619Z,21.50
2019-03-27T05:19:57.005Z,23.93
2019-03-27T05:22:37.479Z,25.57
2019-03-27T05:25:18.242Z,29.03
2019-03-27T05:27:59.523Z,22.00
2019-03-27T05:30:40.298Z,24.23
2019-03-27T05:33:20.843Z,29.03
2019-03-27T05:36:01.358Z,29.80
2019-03-27T05:38:42.026Z,27.93
2019-03-27T05:41:22.439Z,25.67
2019-03-27T05:44:02.938Z,32.63
2019-03-27T05:46:43.742Z,28.53
2019-03-27T05:49:24.784Z,27.77
2019-03-27T05:51:54.704Z,24.20
2019-03-27T05:54:43.099Z,27.23
2019-03-27T05:57:31.424Z,21.63
2019-03-27T06:00:38.904Z,20.20
2019-03-27T06:03:46.647Z,21.53
2019-03-27T06:06:35.091Z,24.70
2019-03-27T06:09:23.563Z,23.90
2019-03-27T06:12:11.920Z,25.43
2019-03-27T06:15:00.358Z,23.97
2019-03-27T06:17:48.709Z,22.70
2019-03-27T06:20:37.051Z,20.87
2019-03-27T06:23:25.377Z,26.50
2019-03-27T06:26:13.860Z,26.43
2019-03-27T06:29:02.289Z,20.80
2019-03-27T06:31:50.650Z,26.43
2019-03-27T06:34:39.144Z,24.12
2019-03-27T06:37:27.529Z,22.63
2019-03-27T06:40:15.961Z,23.80
2019-03-27T06:43:04.809Z,27.17
2019-03-27T06:45:53.142Z,24.13
2019-03-27T06:48:41.482Z,19.90
2019-03-27T06:51:39.543Z,23.60
2019-03-27T06:54:12.452Z,23.90
2019-03-27T06:56:53.368Z,26.07
2019-03-27T06:59:34.308Z,26.53
2019-03-27T07:02:15.167Z,23.93
2019-03-27T07:04:56.368Z,21.77
2019-03-27T07:07:37.518Z,35.57
2019-03-27T07:10:27.592Z,24.80
2019-03-27T07:13:15.942Z,24.67
2019-03-27T07:16:04.394Z,24.53
2019-03-27T07:18:52.770Z,26.30
2019-03-27T07:21:41.077Z,27.20
2019-03-27T07:24:29.419Z,24.23
2019-03-27T07:27:17.745Z,28.03
2019-03-27T07:29:47.289Z,22.43
2019-03-27T07:32:35.694Z,26.70
2019-03-27T07:35:24.048Z,24.67
2019-03-27T07:38:12.372Z,29.50
2019-03-27T07:41:00.802Z,27.87
2019-03-27T07:43:49.204Z,22.93
2019-03-27T07:46:37.564Z,21.53
2019-03-27T07:49:25.901Z,21.37
2019-03-27T07:52:14.217Z,23.63
2019-03-27T07:54:55.056Z,22.70
2019-03-27T07:57:36.271Z,27.43
2019-03-27T08:00:17.282Z,25.47
2019-03-27T08:02:58.085Z,26.17
2019-03-27T08:05:39.135Z,24.00
2019-03-27T08:08:20.169Z,21.00
2019-03-27T08:11:01.119Z,19.97
2019-03-27T08:13:42.015Z,24.17
2019-03-27T08:16:22.831Z,21.87
2019-03-27T08:19:07.651Z,25.27
2019-03-27T08:21:47.373Z,20.00
2019-03-27T08:27:14.664Z,22.40
2019-03-27T08:29:55.756Z,27.03
2019-03-27T08:32:37.604Z,16.87
2019-03-27T08:35:18.104Z,20.73
2019-03-27T08:37:58.501Z,17.73
2019-03-27T08:40:39.313Z,20.13
2019-03-27T08:43:22.076Z,23.40
2019-03-27T08:46:03.139Z,22.48
2019-03-27T08:48:43.663Z,18.40
2019-03-27T08:51:24.356Z,24.07
2019-03-27T08:54:05.425Z,19.47
2019-03-27T08:56:46.321Z,21.67
2019-03-27T08:59:27.233Z,22.07
2019-03-27T09:02:07.864Z,21.37
2019-03-27T09:04:48.546Z,24.07
2019-03-27T09:07:29.272Z,21.73
2019-03-27T09:09:58.820Z,25.50
2019-03-27T09:12:47.180Z,21.23
2019-03-27T09:15:35.522Z,26.40
2019-03-27T09:18:26.658Z,27.07
2019-03-27T09:21:15.010Z,22.93
2019-03-27T09:24:03.408Z,23.27
2019-03-27T09:26:51.733Z,22.30
2019-03-27T09:29:40.032Z,21.37
2019-03-27T09:32:28.349Z,21.00
2019-03-27T09:35:16.871Z,25.97
2019-03-27T09:38:05.193Z,23.60
2019-03-27T09:40:53.557Z,24.03
2019-03-27T09:43:41.850Z,20.90
2019-03-27T09:46:30.172Z,20.63
2019-03-27T09:49:18.473Z,21.03
2019-03-27T09:52:06.796Z,20.97
2019-03-27T09:54:55.194Z,18.93
2019-03-27T09:57:35.695Z,20.55
2019-03-27T10:00:17.021Z,19.43
2019-03-27T10:02:57.954Z,20.13
2019-03-27T10:05:38.353Z,20.53
2019-03-27T10:08:19.172Z,10.90
2019-03-27T10:10:59.769Z,14.73
2019-03-27T10:13:40.468Z,16.77
2019-03-27T10:16:21.193Z,13.50
2019-03-27T10:19:02.052Z,13.97
2019-03-27T10:21:44.158Z,14.20
2019-03-27T10:24:25.271Z,20.73
2019-03-27T10:27:06.432Z,41.15
2019-03-27T10:29:47.396Z,33.00
2019-03-27T10:32:28.250Z,17.60
2019-03-27T10:35:09.148Z,15.00
2019-03-27T10:37:49.779Z,58.27
2019-03-27T10:40:30.346Z,20.33
2019-03-27T10:43:12.258Z,12.45
2019-03-27T10:45:52.686Z,17.20
2019-03-27T10:48:33.425Z,8.80
2019-03-27T10:51:12.801Z,9.83
2019-03-27T10:54:01.259Z,9.40
2019-03-27T10:56:49.625Z,7.73
2019-03-27T10:59:37.990Z,8.27
2019-03-27T11:02:26.453Z,12.23
2019-03-27T11:05:14.843Z,9.37
2019-03-27T11:08:03.262Z,12.37
2019-03-27T11:10:51.709Z,14.07
2019-03-27T11:13:40.009Z,9.43
2019-03-27T11:16:28.321Z,9.53
2019-03-27T11:19:16.677Z,8.67
2019-03-27T11:22:05.077Z,10.27
2019-03-27T11:24:53.397Z,7.40
2019-03-27T11:27:41.717Z,6.57
2019-03-27T11:30:49.003Z,9.90
2019-03-27T11:33:37.405Z,9.50
2019-03-27T11:36:25.730Z,11.47
2019-03-27T11:39:14.110Z,5.90
2019-03-27T11:42:02.424Z,9.00
2019-03-27T11:44:50.729Z,6.87
2019-03-27T11:47:39.046Z,6.10
2019-03-27T11:50:20.326Z,8.43
2019-03-27T11:53:00.916Z,11.53
2019-03-27T11:55:41.450Z,6.23
2019-03-27T11:58:21.982Z,8.53
2019-03-27T12:01:03.271Z,6.73
2019-03-27T12:03:44.104Z,7.90
2019-03-27T12:06:24.715Z,9.10
2019-03-27T12:09:05.385Z,10.30
2019-03-27T12:11:46.147Z,8.87
2019-03-27T12:14:26.524Z,7.67
2019-03-27T12:17:06.974Z,7.07
2019-03-27T12:19:47.871Z,8.77
2019-03-27T12:22:29.084Z,6.00
2019-03-27T12:25:09.713Z,7.17
2019-03-27T12:27:39.098Z,7.47
2019-03-27T12:30:27.684Z,9.83
2019-03-27T12:33:33.636Z,8.20
2019-03-27T12:36:29.189Z,6.00
2019-03-27T12:39:20.558Z,6.00
2019-03-27T12:42:09.021Z,7.27
2019-03-27T12:44:57.351Z,8.47
2019-03-27T12:47:26.800Z,6.00
2019-03-27T12:50:01.985Z,7.87
2019-03-27T12:52:31.475Z,6.43
2019-03-27T12:55:00.812Z,7.67
2019-03-27T12:57:30.292Z,7.73
2019-03-27T12:59:59.711Z,8.30
2019-03-27T13:02:29.172Z,7.73
2019-03-27T13:04:58.494Z,5.40
2019-03-27T13:07:27.911Z,5.73
2019-03-27T13:09:57.323Z,8.13
2019-03-27T13:12:26.665Z,6.80
2019-03-27T13:14:55.985Z,5.73
2019-03-27T13:17:25.313Z,7.93
2019-03-27T13:19:54.656Z,7.87
2019-03-27T13:22:24.014Z,7.83
2019-03-27T13:24:53.380Z,8.07
2019-03-27T13:27:22.716Z,6.77
2019-03-27T13:29:52.064Z,7.37
2019-03-27T13:32:21.453Z,6.90
2019-03-27T13:34:50.873Z,9.23
2019-03-27T13:37:20.233Z,7.13
2019-03-27T13:39:49.738Z,10.83
2019-03-27T13:42:19.138Z,8.77
2019-03-27T13:44:48.484Z,8.73
2019-03-27T13:47:32.350Z,10.23
2019-03-27T13:50:01.809Z,10.00
2019-03-27T13:52:31.141Z,7.97
2019-03-27T13:55:00.731Z,9.63
2019-03-27T13:57:30.355Z,7.30
2019-03-27T13:59:59.805Z,8.53
2019-03-27T14:02:29.233Z,9.87
2019-03-27T14:04:58.708Z,9.90
2019-03-27T14:07:28.059Z,12.83
2019-03-27T14:09:57.484Z,14.03
2019-03-27T14:12:26.979Z,14.23
2019-03-27T14:14:56.452Z,15.40
2019-03-27T14:17:25.792Z,9.93
2019-03-27T14:19:55.239Z,11.03
2019-03-27T14:22:24.761Z,11.57
2019-03-27T14:24:54.289Z,13.10
2019-03-27T14:27:23.721Z,14.40
2019-03-27T14:29:53.263Z,13.20
2019-03-27T14:32:23.120Z,9.77
2019-03-27T14:34:53.919Z,13.87
2019-03-27T14:37:23.656Z,18.57
2019-03-27T14:39:53.086Z,11.87
2019-03-27T14:42:22.440Z,12.90
2019-03-27T14:44:51.821Z,13.20
2019-03-27T14:47:21.281Z,14.37
2019-03-27T14:49:50.673Z,12.77
2019-03-27T14:52:22.231Z,16.47
2019-03-27T14:54:51.738Z,15.57
2019-03-27T14:57:21.209Z,13.97
2019-03-27T14:59:50.796Z,11.03
2019-03-27T15:02:20.209Z,11.63
2019-03-27T15:04:52.318Z,11.83
2019-03-27T15:07:21.769Z,12.87
2019-03-27T15:09:51.140Z,9.57
2019-03-27T15:12:20.594Z,10.43
2019-03-27T15:14:50.080Z,11.70
2019-03-27T15:17:19.617Z,11.17
2019-03-27T15:19:49.030Z,12.57
2019-03-27T15:22:22.699Z,12.70
2019-03-27T15:24:49.533Z,11.37
2019-03-27T15:27:26.302Z,13.07
2019-03-27T15:29:56.034Z,13.20
2019-03-27T15:32:25.405Z,15.27
2019-03-27T15:34:54.770Z,13.03
2019-03-27T15:37:24.103Z,10.07
2019-03-27T15:39:53.488Z,19.90
2019-03-27T15:42:23.016Z,13.00
2019-03-27T15:44:52.689Z,10.77
2019-03-27T15:47:22.218Z,15.40
2019-03-27T15:49:51.608Z,14.43
2019-03-27T15:52:20.944Z,10.17
2019-03-27T15:54:50.399Z,15.67
2019-03-27T15:57:19.918Z,14.93
2019-03-27T15:59:49.330Z,12.40
2019-03-27T16:02:18.805Z,14.07
2019-03-27T16:04:48.339Z,13.00
2019-03-27T16:07:17.730Z,12.63
2019-03-27T16:09:47.223Z,13.33
2019-03-27T16:12:16.686Z,15.87
2019-03-27T16:14:46.087Z,14.93
2019-03-27T16:17:15.497Z,13.00
2019-03-27T16:19:45.052Z,14.50
2019-03-27T16:22:22.515Z,15.50
2019-03-27T16:25:09.909Z,13.70
2019-03-27T16:27:39.484Z,12.73
2019-03-27T16:30:10.005Z,15.13
2019-03-27T16:32:39.375Z,13.10
2019-03-27T16:35:08.918Z,12.83
2019-03-27T16:38:16.800Z,13.23
2019-03-27T16:40:48.113Z,11.63
2019-03-27T16:43:40.178Z,18.87
2019-03-27T16:46:10.162Z,17.03
2019-03-27T16:48:39.618Z,19.00
2019-03-27T16:51:09.311Z,14.50
2019-03-27T16:53:38.713Z,14.77
2019-03-27T16:56:08.420Z,17.73
2019-03-27T16:58:37.918Z,14.47
2019-03-27T17:01:07.350Z,14.43
2019-03-27T17:03:49.101Z,13.13
2019-03-27T17:06:18.641Z,15.57
2019-03-27T17:08:48.052Z,14.73
2019-03-27T17:11:17.428Z,12.40
2019-03-27T17:13:46.765Z,11.43
2019-03-27T17:16:16.174Z,12.73
2019-03-27T17:18:45.521Z,13.97
2019-03-27T17:21:14.972Z,13.83
2019-03-27T17:23:44.380Z,8.53
2019-03-27T17:26:13.883Z,18.27
2019-03-27T17:28:43.247Z,18.60
2019-03-27T17:31:13.003Z,15.37
2019-03-27T17:33:42.748Z,13.67
2019-03-27T17:36:12.134Z,12.03
2019-03-27T17:38:41.545Z,14.03
2019-03-27T17:41:11.053Z,17.43
2019-03-27T17:43:40.497Z,16.67
2019-03-27T17:46:10.087Z,11.30
2019-03-27T17:48:39.503Z,13.33
2019-03-27T17:51:09.064Z,15.90
2019-03-27T17:53:38.447Z,14.83
2019-03-27T17:56:07.836Z,15.53
2019-03-27T17:58:37.322Z,11.90
2019-03-27T18:01:06.921Z,17.50
2019-03-27T18:03:36.337Z,12.80
2019-03-27T18:06:05.877Z,11.27
2019-03-27T18:08:35.229Z,11.77
2019-03-27T18:11:07.893Z,11.43
2019-03-27T18:13:35.725Z,15.47
2019-03-27T18:16:06.479Z,14.23
2019-03-27T18:18:36.118Z,10.47
2019-03-27T18:21:07.042Z,13.07
2019-03-27T18:23:45.957Z,10.17
2019-03-27T18:26:08.339Z,11.93
2019-03-27T18:28:38.032Z,13.20
2019-03-27T18:31:07.456Z,11.00
2019-03-27T18:33:36.871Z,13.33
2019-03-27T18:36:06.456Z,10.40
2019-03-27T18:38:36.903Z,13.23
2019-03-27T18:41:06.447Z,14.37
2019-03-27T18:43:38.621Z,16.20
2019-03-27T18:46:08.122Z,15.28
2019-03-27T18:48:37.484Z,14.73
2019-03-27T18:51:06.886Z,13.43
2019-03-27T18:53:36.303Z,12.20
2019-03-27T18:56:05.723Z,14.70
2019-03-27T18:58:35.200Z,12.00
2019-03-27T19:01:05.105Z,9.77
2019-03-27T19:03:34.458Z,18.17
2019-03-27T19:06:03.994Z,15.43
2019-03-27T19:08:33.474Z,48.43
2019-03-27T19:11:02.900Z,13.77
2019-03-27T19:13:32.274Z,14.67
2019-03-27T19:16:01.623Z,15.03
2019-03-27T19:18:31.081Z,15.17
2019-03-27T19:21:00.489Z,19.47
2019-03-27T19:23:29.843Z,17.30
2019-03-27T19:25:59.213Z,13.37
2019-03-27T19:28:28.559Z,18.07
2019-03-27T19:30:57.994Z,21.40
2019-03-27T19:33:27.443Z,22.10
2019-03-27T19:35:56.902Z,18.60
2019-03-27T19:38:27.994Z,21.53
2019-03-27T19:40:57.397Z,20.83
2019-03-27T19:43:26.973Z,18.30
2019-03-27T19:45:57.597Z,63.97
2019-03-27T19:48:27.701Z,28.80
2019-03-27T19:50:57.073Z,24.63
2019-03-27T19:53:26.514Z,19.43
2019-03-27T19:55:56.026Z,13.73
2019-03-27T19:58:25.401Z,14.37
2019-03-27T20:00:54.929Z,14.93
2019-03-27T20:03:24.310Z,13.10
2019-03-27T20:05:53.937Z,17.13
2019-03-27T20:08:23.463Z,15.30
2019-03-27T20:10:53.016Z,12.90
2019-03-27T20:13:22.555Z,15.90
2019-03-27T20:15:52.163Z,14.97
2019-03-27T20:18:21.501Z,12.53
2019-03-27T20:20:51.119Z,15.97
2019-03-27T20:23:20.603Z,14.20
2019-03-27T20:25:52.955Z,15.17
2019-03-27T20:28:22.346Z,13.57
2019-03-27T20:30:51.821Z,12.63
2019-03-27T20:33:21.195Z,19.73
2019-03-27T20:35:52.885Z,14.13
2019-03-27T20:38:22.318Z,16.43
2019-03-27T20:40:51.804Z,16.27
2019-03-27T20:43:21.215Z,12.30
2019-03-27T20:45:50.708Z,14.37
2019-03-27T20:48:20.251Z,27.47
2019-03-27T20:50:49.711Z,16.27
2019-03-27T20:53:19.176Z,18.87
2019-03-27T20:55:48.530Z,18.43
2019-03-27T20:58:17.896Z,18.60
2019-03-27T21:00:47.273Z,13.63
2019-03-27T21:03:16.672Z,22.00
2019-03-27T21:05:46.211Z,15.67
2019-03-27T21:08:15.633Z,14.60
2019-03-27T21:10:45.001Z,12.37
2019-03-27T21:13:14.325Z,12.70
2019-03-27T21:15:43.728Z,10.43
2019-03-27T21:18:13.185Z,10.33
2019-03-27T21:20:42.712Z,13.33
2019-03-27T21:23:12.174Z,12.43
2019-03-27T21:25:41.528Z,15.37
2019-03-27T21:28:10.932Z,16.43
2019-03-27T21:30:40.301Z,18.30
2019-03-27T21:33:09.747Z,21.33
2019-03-27T21:35:39.306Z,14.93
2019-03-27T21:38:08.753Z,15.60
2019-03-27T21:40:38.219Z,15.13
2019-03-27T21:43:07.680Z,17.43
2019-03-27T21:45:37.038Z,15.93
2019-03-27T21:48:06.494Z,15.97
2019-03-27T21:50:35.909Z,20.83
2019-03-27T21:53:05.375Z,21.53
2019-03-27T21:55:42.801Z,16.07
2019-03-27T21:58:05.947Z,13.33
2019-03-27T22:00:40.036Z,19.13
2019-03-27T22:03:09.840Z,14.60
2019-03-27T22:05:39.363Z,13.17
2019-03-27T22:08:08.945Z,18.53
2019-03-27T22:10:38.334Z,20.83
2019-03-27T22:13:07.819Z,18.00
2019-03-27T22:15:37.278Z,19.70
2019-03-27T22:18:06.798Z,18.17
2019-03-27T22:20:39.348Z,17.20
2019-03-27T22:23:07.323Z,16.60
2019-03-27T22:25:36.914Z,14.33
2019-03-27T22:28:06.443Z,16.13
2019-03-27T22:30:35.883Z,17.40
2019-03-27T22:33:05.433Z,14.60
2019-03-27T22:35:34.955Z,14.07
2019-03-27T22:38:04.541Z,15.30
2019-03-27T22:40:33.960Z,15.00
2019-03-27T22:43:03.306Z,14.80
2019-03-27T22:45:32.804Z,17.70
2019-03-27T22:48:02.160Z,18.47
2019-03-27T22:50:31.554Z,19.67
2019-03-27T22:53:00.925Z,14.50
2019-03-27T22:55:30.373Z,18.57
2019-03-27T22:57:59.866Z,14.67
2019-03-27T23:00:48.399Z,17.03
2019-03-27T23:03:18.969Z,14.90
2019-03-27T23:05:48.750Z,16.67
2019-03-27T23:08:18.123Z,17.47
2019-03-27T23:10:47.558Z,16.27
2019-03-27T23:13:17.101Z,17.67
2019-03-27T23:15:46.664Z,12.13
2019-03-27T23:18:16.068Z,17.10
2019-03-27T23:20:45.401Z,15.23
2019-03-27T23:23:15.341Z,17.47
2019-03-27T23:25:44.733Z,15.37
2019-03-27T23:28:14.168Z,15.30
2019-03-27T23:30:43.625Z,13.87
2019-03-27T23:33:13.024Z,14.03
2019-03-27T23:35:42.469Z,15.27
2019-03-27T23:38:12.014Z,13.73
2019-03-27T23:40:41.389Z,14.20
2019-03-27T23:43:10.720Z,16.80
2019-03-27T23:45:40.156Z,19.03
2019-03-27T23:48:09.513Z,20.20
2019-03-27T23:50:38.941Z,18.00
2019-03-27T23:53:08.333Z,18.03
2019-03-27T23:55:37.745Z,17.17
2019-03-27T23:58:07.492Z,19.27
